Latest Weather Observations for Clermont Airport

IDQ60801

Issued at 11:02 pm EST Sunday 7 February 2016 (issued every 30 minutes, with the page automatically refreshed every 10 minutes)

About weather observations | Map of weather stations | Latest weather observations for QLD | Other Formats
Station Details ID: 035124 Name: CLERMONT AIRPORT Lat: -22.78 Lon: 147.62 Height: 270.27 m
Data from the previous 72 hours. | See also: Recent months at Clermont Airport
Date/Time
EST
Temp
°C
App
Temp
°C
Dew
Point
Rel
Hum
%
Delta-T
°C
Wind Press
QNH
hPa
Press
MSL
hPa
Rain
since 9 am
mm
Dir
 
Spd
km/h
Gust
km/h
Spd
kts
Gust
kts
07/11:00pm 24.3 27.7 22.7 91 1.1 SE 9 17 5 9 1012.7 1010.9 0.2
07/10:30pm 24.6 28.0 22.7 89 1.3 SE 9 19 5 10 1012.8 1011.0 0.2
07/10:00pm 24.8 28.2 22.7 88 1.4 SE 9 13 5 7 1012.9 1011.1 0.2
07/09:30pm 25.1 28.4 22.6 86 1.7 SE 9 15 5 8 1012.6 1010.8 0.2
07/09:00pm 25.3 29.1 22.8 86 1.7 SE 7 13 4 7 1012.2 1010.4 0.2
07/08:30pm 25.4 29.9 22.9 86 1.7 ESE 4 6 2 3 1011.9 1010.1 0.2
07/08:00pm 25.4 29.5 22.9 86 1.7 ESE 6 9 3 5 1011.6 1009.8 0.2
07/07:30pm 25.4 29.1 22.5 84 2.0 ESE 7 11 4 6 1011.3 1009.5 0.2
07/07:00pm 25.8 29.7 22.9 84 2.0 SE 7 13 4 7 1010.8 1009.0 0.2
07/06:30pm 26.3 29.5 23.0 82 2.3 ESE 11 22 6 12 1010.5 1008.7 0.2
07/06:00pm 27.5 31.5 23.1 77 3.0 ESE 7 13 4 7 1009.8 1008.0 0.2
07/05:30pm 27.3 30.0 22.9 77 3.0 SE 13 20 7 11 1009.3 1007.5 0.2
07/05:00pm 26.7 30.0 23.2 81 2.4 SE 11 20 6 11 1009.2 1007.4 0.2
07/04:30pm 26.2 30.0 23.5 85 1.9 SE 9 15 5 8 1009.2 1007.4 0.2
07/04:00pm 26.4 30.6 23.1 82 2.3 ESE 6 9 3 5 1009.1 1007.3 0.2
07/03:30pm 26.2 30.1 22.9 82 2.3 SE 7 15 4 8 1009.2 1007.4 0.2
07/03:00pm 26.1 29.2 22.8 82 2.3 SSE 11 17 6 9 1009.4 1007.6 0.2
07/02:30pm 25.7 29.0 22.6 83 2.1 SSE 9 15 5 8 1009.5 1007.7 0.2
07/02:00pm 25.2 28.4 23.1 88 1.4 SE 11 17 6 9 1009.8 1008.0 0.2
07/01:30pm 24.9 28.5 23.1 90 1.2 SE 9 15 5 8 1010.1 1008.3 0.2
07/01:00pm 24.5 28.1 23.1 92 1.0 SE 9 15 5 8 1010.5 1008.7 0.2
07/12:30pm 24.6 27.6 22.7 89 1.3 SE 11 15 6 8 1010.6 1008.8 0.2
07/12:00pm 24.7 28.2 22.8 89 1.3 SSE 9 15 5 8 1010.7 1008.9 0.2
07/11:30am 24.1 27.8 22.5 91 1.1 SE 7 13 4 7 1010.8 1009.0 0.2
07/11:00am 23.9 27.2 22.5 92 0.9 SE 9 13 5 7 1011.1 1009.3 0.2
07/10:30am 23.8 26.9 22.2 91 1.1 SE 9 15 5 8 1011.1 1009.3 0.0
07/10:00am 23.6 26.1 21.7 89 1.3 SE 11 19 6 10 1011.0 1009.2 0.0
07/09:30am 23.6 26.2 21.9 90 1.1 SE 11 19 6 10 1011.0 1009.2 0.0
07/09:00am 23.7 27.2 22.1 91 1.1 ESE 7 17 4 9 1010.7 1008.9 6.4
07/08:30am 23.5 26.4 21.8 90 1.1 SE 9 15 5 8 1010.4 1008.6 6.0
07/08:00am 23.6 26.7 22.2 92 0.9 SE 9 17 5 9 1010.1 1008.3 6.0
07/07:30am 23.1 26.6 22.1 94 0.7 SE 7 11 4 6 1009.9 1008.1 6.0
07/07:00am 22.9 26.2 21.9 94 0.7 SSE 7 11 4 6 1009.9 1008.1 5.6
07/06:30am 23.2 26.8 22.4 95 0.5 SE 7 13 4 7 1009.5 1007.7 5.6
07/06:00am 23.2 27.4 22.4 95 0.5 SE 4 7 2 4 1009.0 1007.2 5.6
07/05:30am 23.1 27.2 22.3 95 0.5 SE 4 6 2 3 1008.6 1006.8 5.6
07/05:00am 23.1 26.3 22.3 95 0.5 SE 9 15 5 8 1008.2 1006.4 5.2
07/04:30am 23.2 26.9 22.2 94 0.7 SE 6 7 3 4 1008.1 1006.3 4.8
07/04:00am 23.2 26.9 22.2 94 0.7 ESE 6 11 3 6 1007.8 1006.0 4.2
07/03:30am 23.2 26.9 22.2 94 0.7 SE 6 9 3 5 1007.7 1005.9 4.2
07/03:00am 23.3 26.9 22.1 93 0.8 ESE 6 11 3 6 1007.8 1006.0 4.2
07/02:30am 23.3 27.3 22.1 93 0.8 ESE 4 7 2 4 1007.8 1006.0 4.2
07/02:00am 23.5 27.0 21.9 91 1.1 ESE 6 9 3 5 1007.9 1006.1 4.2
07/01:30am 23.7 27.3 22.0 90 1.1 ENE 6 13 3 7 1008.0 1006.2 4.2
07/01:00am 23.8 27.1 21.9 89 1.3 E 7 13 4 7 1008.2 1006.4 4.2
07/12:30am 23.9 27.2 21.8 88 1.4 E 7 13 4 7 1008.6 1006.8 4.2
07/12:00am 24.1 27.8 22.2 89 1.3 E 6 13 3 7 1008.8 1007.0 4.2
 
Date/Time
EST
Temp
°C
App
Temp
°C
Dew
Point
Rel
Hum
%
Delta-T
°C
Wind Press
QNH
hPa
Press
MSL
hPa
Rain
since 9 am
mm
Dir
 
Spd
km/h
Gust
km/h
Spd
kts
Gust
kts
06/11:30pm 24.1 28.3 22.4 90 1.1 E 4 7 2 4 1008.7 1006.9 4.2
06/11:00pm 24.2 27.9 22.5 90 1.2 ENE 7 13 4 7 1008.7 1006.9 4.2
06/10:30pm 24.3 28.0 22.6 90 1.2 ENE 7 11 4 6 1008.9 1007.1 4.2
06/10:00pm 24.4 28.2 22.8 91 1.1 E 7 13 4 7 1008.8 1007.0 4.2
06/09:30pm 24.3 29.4 23.3 94 0.7 ESE 2 4 1 2 1008.7 1006.9 4.0
06/09:00pm 24.3 28.5 23.1 93 0.8 ESE 6 9 3 5 1008.7 1006.9 4.0
06/08:30pm 24.4 28.6 23.2 93 0.8 SE 6 9 3 5 1008.3 1006.5 4.0
06/08:00pm 24.6 29.6 23.2 92 1.0 SSE 2 4 1 2 1007.9 1006.1 3.0
06/07:30pm 24.9 29.7 23.5 92 1.0 SSE 4 7 2 4 1007.5 1005.7 2.6
06/07:00pm 24.8 29.4 23.2 91 1.1 SE 4 6 2 3 1007.3 1005.5 2.6
06/06:30pm 24.7 29.0 23.3 92 1.0 ESE 6 9 3 5 1006.7 1004.8 2.6
06/06:00pm 24.7 28.5 23.5 93 0.8 SE 9 13 5 7 1006.1 1004.3 2.6
06/05:30pm 24.6 28.5 23.6 94 0.7 ESE 9 17 5 9 1005.8 1004.0 2.6
06/05:00pm 24.6 28.9 23.6 94 0.7 SE 7 11 4 6 1005.3 1003.5 2.4
06/04:30pm 24.9 29.2 23.7 93 0.8 SE 7 13 4 7 1004.9 1003.1 2.2
06/04:00pm 24.5 27.7 23.1 92 1.0 SE 11 17 6 9 1005.2 1003.4 1.8
06/03:30pm 25.3 29.2 23.0 87 1.6 SE 7 13 4 7 1005.4 1003.6 1.2
06/03:00pm 25.1 28.7 23.0 88 1.4 SE 9 17 5 9 1005.5 1003.7 1.2
06/02:30pm 25.4 28.8 23.3 88 1.4 ESE 11 19 6 10 1005.6 1003.8 1.2
06/02:00pm 24.6 28.7 23.2 92 1.0 ESE 7 17 4 9 1006.0 1004.2 1.2
06/01:30pm 24.3 27.3 22.7 91 1.1 ESE 11 17 6 9 1006.5 1004.6 1.0
06/01:00pm 24.7 28.6 22.9 90 1.2 E 7 13 4 7 1006.8 1004.9 0.2
06/12:30pm 24.5 27.8 22.6 89 1.3 SE 9 15 5 8 1007.0 1005.2 0.0
06/12:00pm 24.4 26.9 21.7 85 1.8 ESE 11 15 6 8 1007.3 1005.5 0.0
06/11:30am 24.9 28.0 22.2 85 1.8 ESE 9 15 5 8 1007.5 1005.7 0.0
06/11:00am 24.4 26.6 21.1 82 2.2 ESE 11 17 6 9 1007.6 1005.8 0.0
06/10:30am 24.4 27.2 21.5 84 1.9 E 9 15 5 8 1007.7 1005.9 0.0
06/10:00am 23.7 26.4 21.4 87 1.5 ESE 9 13 5 7 1007.7 1005.9 0.0
06/09:30am 23.3 26.0 21.4 89 1.3 ESE 9 15 5 8 1007.6 1005.8 0.0
06/09:00am 23.3 25.7 20.8 86 1.7 ESE 9 15 5 8 1007.4 1005.6 53.4
06/08:30am 23.2 25.7 21.1 88 1.4 ESE 9 17 5 9 1007.1 1005.3 53.4
06/08:00am 22.8 24.8 20.7 88 1.4 ESE 11 19 6 10 1007.1 1005.3 53.4
06/07:30am 22.5 25.1 20.4 88 1.4 ESE 7 15 4 8 1007.0 1005.2 53.4
06/07:00am 22.4 25.0 20.5 89 1.2 SE 7 13 4 7 1006.9 1005.1 53.4
06/06:30am 22.3 24.8 20.2 88 1.4 SE 7 9 4 5 1006.4 1004.5 53.4
06/06:00am 22.2 24.8 20.5 90 1.1 SE 7 11 4 6 1005.9 1004.1 53.4
06/05:30am 22.2 24.7 20.3 89 1.2 ESE 7 13 4 7 1005.6 1003.8 53.4
06/05:00am 22.2 24.4 20.3 89 1.2 ESE 9 15 5 8 1005.3 1003.5 53.4
06/04:30am 22.3 24.1 20.4 89 1.2 E 11 17 6 9 1005.3 1003.5 53.4
06/04:00am 22.3 25.0 20.6 90 1.1 E 7 15 4 8 1005.3 1003.5 53.4
06/03:30am 22.4 24.3 20.5 89 1.2 E 11 20 6 11 1005.2 1003.4 53.4
06/03:00am 22.4 23.9 20.5 89 1.2 E 13 20 7 11 1005.0 1003.2 53.2
06/02:30am 22.6 24.8 21.1 91 1.0 E 11 20 6 11 1004.7 1002.9 53.2
06/02:00am 22.6 25.9 21.8 95 0.5 ESE 7 13 4 7 1004.9 1003.1 53.2
06/01:30am 22.6 25.9 21.8 95 0.5 E 7 13 4 7 1005.0 1003.2 52.8
06/01:00am 22.8 26.1 21.8 94 0.7 E 7 13 4 7 1005.2 1003.4 52.2
06/12:30am 23.1 26.3 21.7 92 0.9 E 7 13 4 7 1005.3 1003.5 51.8
06/12:00am 23.4 25.9 21.7 90 1.1 E 11 20 6 11 1005.6 1003.8 51.6
 
Date/Time
EST
Temp
°C
App
Temp
°C
Dew
Point
Rel
Hum
%
Delta-T
°C
Wind Press
QNH
hPa
Press
MSL
hPa
Rain
since 9 am
mm
Dir
 
Spd
km/h
Gust
km/h
Spd
kts
Gust
kts
05/11:30pm 23.5 26.8 21.8 90 1.1 ESE 7 15 4 8 1006.0 1004.2 51.4
05/11:00pm 23.6 27.2 22.0 91 1.1 E 6 9 3 5 1006.6 1004.7 51.4
05/10:30pm 23.5 27.1 22.3 93 0.8 E 7 13 4 7 1006.8 1004.9 51.4
05/10:00pm 23.4 27.0 22.4 94 0.7 E 7 15 4 8 1006.7 1004.8 51.2
05/09:30pm 23.6 27.1 22.8 95 0.5 E 9 20 5 11 1006.6 1004.7 51.2
05/09:00pm 23.6 27.1 22.8 95 0.5 ESE 9 17 5 9 1006.5 1004.6 49.6
05/08:30pm 23.6 27.4 22.8 95 0.5 ESE 7 11 4 6 1006.4 1004.5 48.0
05/08:00pm 23.8 27.9 23.0 95 0.5 ESE 6 13 3 7 1006.0 1004.2 46.4
05/07:30pm 23.9 27.8 23.0 95 0.6 ESE 7 17 4 9 1005.7 1003.9 46.2
05/07:00pm 23.8 27.7 23.0 95 0.5 ESE 7 13 4 7 1005.2 1003.4 46.0
05/06:30pm 23.8 27.0 23.0 95 0.5 ESE 11 20 6 11 1004.6 1002.8 45.8
05/06:00pm 23.9 27.1 23.0 95 0.6 ESE 11 19 6 10 1004.5 1002.7 44.0
05/05:30pm 24.0 27.2 23.1 95 0.6 SE 11 22 6 12 1004.1 1002.3 41.2
05/05:00pm 24.0 27.2 23.1 95 0.6 SE 11 19 6 10 1003.9 1002.1 33.8
05/04:30pm 24.2 27.9 23.2 94 0.7 ESE 9 19 5 10 1003.6 1001.8 20.4
05/04:00pm 24.4 28.2 23.4 94 0.7 SE 9 20 5 11 1003.1 1001.2 10.0
05/03:30pm 24.7 27.4 23.5 93 0.8 SE 15 22 8 12 1003.3 1001.4 5.0
05/03:00pm 25.6 28.1 23.8 90 1.2 ESE 17 30 9 16 1003.3 1001.4 1.4
05/02:30pm 26.8 29.7 23.9 84 2.0 SSE 15 24 8 13 1003.3 1001.4 1.2
05/02:00pm 28.3 32.0 25.1 83 2.3 SE 15 22 8 12 1003.5 1001.6 1.2
05/01:30pm 27.0 30.4 24.6 87 1.7 SSE 15 24 8 13 1003.8 1002.0 1.2
05/01:00pm 26.5 31.0 24.0 86 1.7 N 7 13 4 7 1004.1 1002.3 1.0
05/12:30pm 29.7 34.1 23.4 69 4.4 NE 6 9 3 5 1004.2 1002.4 0.0
05/12:00pm 29.6 33.6 23.1 68 4.5 NE 7 13 4 7 1004.6 1002.8 0.0
05/11:30am 29.3 33.2 23.0 69 4.3 ENE 7 15 4 8 1004.9 1003.1 0.0
05/11:00am 28.9 32.8 23.6 73 3.7 ENE 9 17 5 9 1005.3 1003.5 0.0
05/10:30am 27.9 32.4 23.7 78 2.9 ENE 6 9 3 5 1005.7 1003.9 0.0
05/10:00am 27.5 32.1 24.1 82 2.4 E 7 13 4 7 1006.0 1004.2 0.0
05/09:30am 26.5 30.3 23.4 83 2.1 SE 9 15 5 8 1006.0 1004.2 0.0
05/09:00am 26.0 29.8 23.5 86 1.7 ESE 9 17 5 9 1005.7 1003.9 75.4
05/08:30am 25.3 29.0 23.2 88 1.4 ESE 9 13 5 7 1005.6 1003.8 75.4
05/08:00am 25.0 29.2 23.4 91 1.1 SE 7 13 4 7 1005.5 1003.7 75.4
05/07:30am 24.8 29.0 23.4 92 1.0 SE 7 9 4 5 1005.3 1003.5 75.4
05/07:00am 24.6 28.8 23.2 92 1.0 SE 6 9 3 5 1004.9 1003.1 75.4
05/06:30am 24.4 28.8 23.4 94 0.7 SE 6 11 3 6 1004.6 1002.8 75.4
05/06:00am 24.4 28.8 23.5 95 0.6 SE 6 9 3 5 1004.2 1002.4 75.4
05/05:30am 24.3 29.0 23.4 95 0.6 SSE 4 7 2 4 1003.8 1002.0 75.4
05/05:00am 24.3 28.8 23.6 96 0.5 S 6 9 3 5 1003.3 1001.4 75.4
05/04:30am 24.0 28.6 23.1 95 0.6 SW 4 4 2 2 1002.7 1000.8 75.4
05/04:00am 24.0 29.3 23.1 95 0.6 CALM 0 0 0 0 1002.5 1000.6 75.4
05/03:30am 24.0 29.3 23.1 95 0.6 CALM 0 0 0 0 1002.8 1000.9 75.4
05/03:00am 24.0 29.3 23.1 95 0.6 CALM 0 0 0 0 1003.3 1001.4 75.4
05/02:30am 24.0 29.3 23.1 95 0.6 CALM 0 0 0 0 1003.8 1002.0 75.4
05/02:00am 24.1 28.7 23.2 95 0.6 ESE 4 6 2 3 1004.0 1002.2 75.4
05/01:30am 24.0 29.3 23.1 95 0.6 CALM 0 0 0 0 1004.4 1002.6 75.2
05/01:00am 23.8 28.7 23.0 95 0.5 ESE 2 6 1 3 1004.5 1002.7 75.2
05/12:30am 23.8 28.3 23.0 95 0.5 ESE 4 9 2 5 1004.9 1003.1 75.2
05/12:00am 24.1 29.1 23.2 95 0.6 E 2 6 1 3 1005.6 1003.8 74.8
 
Date/Time
EST
Temp
°C
App
Temp
°C
Dew
Point
Rel
Hum
%
Delta-T
°C
Wind Press
QNH
hPa
Press
MSL
hPa
Rain
since 9 am
mm
Dir
 
Spd
km/h
Gust
km/h
Spd
kts
Gust
kts
04/11:30pm 24.3 28.5 23.4 95 0.6 SE 7 11 4 6 1006.1 1004.3 74.0

Other Formats:

Comma delimited format used in spreadsheet applications
http://www.bom.gov.au/fwo/IDQ60801/IDQ60801.94395.axf

JavaScript Object Notation format (JSON) in row-major order
http://www.bom.gov.au/fwo/IDQ60801/IDQ60801.94395.json